createdAt,value
2018-03-28T00:02:03.208Z,94858.62
2018-03-28T00:04:31.632Z,94858.27
2018-03-28T00:06:59.949Z,94858.00
2018-03-28T00:09:28.305Z,94859.75
2018-03-28T00:11:56.755Z,94857.20
2018-03-28T00:14:25.171Z,94860.61
2018-03-28T00:16:53.824Z,94740.73
2018-03-28T00:19:22.122Z,94860.38
2018-03-28T00:21:50.803Z,94857.19
2018-03-28T00:24:19.467Z,94853.83
2018-03-28T00:26:48.057Z,94853.83
2018-03-28T00:29:16.538Z,94857.09
2018-03-28T00:31:44.811Z,94852.62
2018-03-28T00:34:13.438Z,94852.76
2018-03-28T00:36:41.969Z,94855.11
2018-03-28T00:39:10.765Z,94851.00
2018-03-28T00:41:39.554Z,94849.88
2018-03-28T00:44:08.168Z,94849.18
2018-03-28T00:46:37.852Z,94848.08
2018-03-28T00:49:06.275Z,94848.33
2018-03-28T00:51:38.354Z,94846.95
2018-03-28T00:54:06.767Z,94853.12
2018-03-28T00:56:35.100Z,94841.66
2018-03-28T00:59:03.723Z,94846.82
2018-03-28T01:01:32.029Z,94836.67
2018-03-28T01:04:00.474Z,94839.97
2018-03-28T01:06:28.963Z,94837.43
2018-03-28T01:08:57.685Z,94825.48
2018-03-28T01:11:26.155Z,94827.33
2018-03-28T01:13:54.811Z,94821.05
2018-03-28T01:16:23.219Z,94816.74
2018-03-28T01:18:51.881Z,94812.44
2018-03-28T01:21:20.455Z,94771.22
2018-03-28T01:23:48.782Z,94825.75
2018-03-28T01:26:17.079Z,94821.85
2018-03-28T01:28:45.559Z,94814.47
2018-03-28T01:31:13.889Z,94816.30
2018-03-28T01:33:42.550Z,94811.70
2018-03-28T01:36:10.830Z,94818.73
2018-03-28T01:38:39.312Z,94816.45
2018-03-28T01:41:08.098Z,94810.75
2018-03-28T01:43:36.774Z,94803.54
2018-03-28T01:46:05.345Z,94799.14
2018-03-28T01:48:33.754Z,94799.80
2018-03-28T01:51:02.219Z,94805.31
2018-03-28T01:53:30.610Z,94805.67
2018-03-28T01:55:59.085Z,94806.17
2018-03-28T01:58:27.762Z,94802.83
2018-03-28T02:00:56.624Z,94805.86
2018-03-28T02:03:25.002Z,94802.38
2018-03-28T02:05:53.622Z,94798.33
2018-03-28T02:08:21.965Z,94801.86
2018-03-28T02:10:50.586Z,94792.23
2018-03-28T02:13:18.959Z,94790.02
2018-03-28T02:15:47.275Z,94784.62
2018-03-28T02:18:15.935Z,94781.53
2018-03-28T02:20:44.301Z,94791.21
2018-03-28T02:23:12.686Z,94783.45
2018-03-28T02:25:41.158Z,94783.23
2018-03-28T02:28:09.735Z,94779.48
2018-03-28T02:30:38.256Z,94782.39
2018-03-28T02:33:06.707Z,94768.97
2018-03-28T02:35:35.276Z,94772.05
2018-03-28T02:38:03.610Z,94775.73
2018-03-28T02:40:32.030Z,94760.68
2018-03-28T02:43:00.634Z,94765.85
2018-03-28T02:45:28.998Z,94758.07
2018-03-28T02:47:57.649Z,94763.26
2018-03-28T02:50:26.077Z,94755.26
2018-03-28T02:52:54.440Z,94748.00
2018-03-28T02:55:22.749Z,94748.41
2018-03-28T02:57:51.087Z,94751.88
2018-03-28T03:00:19.676Z,94749.51
2018-03-28T03:02:48.060Z,94750.60
2018-03-28T03:05:16.652Z,94758.55
2018-03-28T03:07:45.012Z,94757.20
2018-03-28T03:10:13.640Z,94761.44
2018-03-28T03:12:42.199Z,94762.92
2018-03-28T03:15:10.659Z,94767.45
2018-03-28T03:17:39.046Z,94768.00
2018-03-28T03:20:07.640Z,94769.95
2018-03-28T03:22:36.303Z,94731.27
2018-03-28T03:25:04.693Z,94770.35
2018-03-28T03:27:33.174Z,94772.55
2018-03-28T03:30:01.847Z,94771.10
2018-03-28T03:32:30.529Z,94772.06
2018-03-28T03:34:58.859Z,94760.78
2018-03-28T03:37:27.228Z,94765.88
2018-03-28T03:39:55.580Z,94762.88
2018-03-28T03:42:24.037Z,94756.05
2018-03-28T03:44:52.543Z,94753.80
2018-03-28T03:47:20.794Z,94758.81
2018-03-28T03:49:49.315Z,94765.98
2018-03-28T03:52:17.657Z,94769.55
2018-03-28T03:54:46.113Z,94768.90
2018-03-28T03:57:14.537Z,94770.54
2018-03-28T03:59:43.098Z,94775.36
2018-03-28T04:02:11.509Z,94774.73
2018-03-28T04:04:39.972Z,94775.09
2018-03-28T04:07:08.745Z,94774.33
2018-03-28T04:09:36.868Z,94783.25
2018-03-28T04:12:05.305Z,94779.92
2018-03-28T04:14:33.748Z,94773.50
2018-03-28T04:17:02.168Z,94781.25
2018-03-28T04:19:30.655Z,94785.95
2018-03-28T04:21:59.013Z,94779.13
2018-03-28T04:24:27.614Z,94784.67
2018-03-28T04:26:56.095Z,94781.13
2018-03-28T04:29:24.662Z,94783.08
2018-03-28T04:31:52.881Z,94783.58
2018-03-28T04:34:21.209Z,94791.98
2018-03-28T04:36:49.722Z,94791.19
2018-03-28T04:39:18.417Z,94791.72
2018-03-28T04:41:46.858Z,94795.51
2018-03-28T04:44:15.448Z,94799.06
2018-03-28T04:46:43.941Z,94800.94
2018-03-28T04:49:12.606Z,94795.95
2018-03-28T04:51:41.289Z,94800.82
2018-03-28T04:54:09.571Z,94800.91
2018-03-28T04:56:38.151Z,94806.01
2018-03-28T04:59:06.630Z,94801.42
2018-03-28T05:01:34.928Z,94790.38
2018-03-28T05:04:03.556Z,94789.23
2018-03-28T05:06:31.974Z,94789.45
2018-03-28T05:09:00.566Z,94788.14
2018-03-28T05:11:29.129Z,94848.87
2018-03-28T05:13:57.415Z,94805.46
2018-03-28T05:16:25.584Z,94801.42
2018-03-28T05:18:54.270Z,94803.90
2018-03-28T05:21:22.462Z,94797.59
2018-03-28T05:23:50.730Z,94796.72
2018-03-28T05:26:19.166Z,94802.78
2018-03-28T05:28:47.578Z,94801.89
2018-03-28T05:31:17.098Z,94756.05
2018-03-28T05:33:45.778Z,94797.03
2018-03-28T05:36:14.465Z,94777.16
2018-03-28T05:38:42.938Z,94797.32
2018-03-28T05:41:11.485Z,94788.80
2018-03-28T05:43:40.005Z,94802.06
2018-03-28T05:46:08.282Z,94798.33
2018-03-28T05:48:37.179Z,94805.58
2018-03-28T05:51:05.542Z,94804.25
2018-03-28T05:53:34.183Z,94814.91
2018-03-28T05:56:02.624Z,94812.78
2018-03-28T05:58:30.922Z,94806.12
2018-03-28T06:00:59.635Z,94804.51
2018-03-28T06:03:28.140Z,94810.28
2018-03-28T06:05:56.739Z,94801.06
2018-03-28T06:08:25.233Z,94806.95
2018-03-28T06:10:53.707Z,94813.05
2018-03-28T06:13:22.276Z,94801.90
2018-03-28T06:15:50.557Z,94811.49
2018-03-28T06:18:19.036Z,94803.38
2018-03-28T06:20:47.516Z,94791.86
2018-03-28T06:23:16.268Z,94808.02
2018-03-28T06:25:44.779Z,94808.14
2018-03-28T06:28:13.358Z,94809.55
2018-03-28T06:30:41.904Z,94811.34
2018-03-28T06:33:10.124Z,94803.78
2018-03-28T06:35:38.599Z,94809.61
2018-03-28T06:38:07.096Z,94815.88
2018-03-28T06:40:35.786Z,94813.84
2018-03-28T06:43:04.242Z,94811.67
2018-03-28T06:45:32.739Z,94817.61
2018-03-28T06:48:01.218Z,94816.78
2018-03-28T06:50:29.891Z,94812.14
2018-03-28T06:52:58.278Z,94823.23
2018-03-28T06:55:26.748Z,94825.55
2018-03-28T06:57:55.435Z,94832.01
2018-03-28T07:00:23.620Z,94828.66
2018-03-28T07:02:52.296Z,94831.53
2018-03-28T07:05:20.946Z,94820.53
2018-03-28T07:07:49.287Z,94824.63
2018-03-28T07:10:17.636Z,94827.81
2018-03-28T07:12:45.938Z,94824.39
2018-03-28T07:15:14.463Z,94835.47
2018-03-28T07:17:43.143Z,94835.17
2018-03-28T07:20:11.463Z,94836.87
2018-03-28T07:22:39.933Z,94833.74
2018-03-28T07:25:08.336Z,94831.80
2018-03-28T07:27:36.800Z,94833.69
2018-03-28T07:30:05.381Z,94831.19
2018-03-28T07:32:33.757Z,94825.34
2018-03-28T07:35:02.339Z,94813.05
2018-03-28T07:37:30.781Z,94808.13
2018-03-28T07:39:59.006Z,94798.41
2018-03-28T07:42:27.467Z,94800.20
2018-03-28T07:44:55.886Z,94810.55
2018-03-28T07:47:24.450Z,94810.60
2018-03-28T07:49:52.471Z,94807.17
2018-03-28T07:52:20.830Z,94809.19
2018-03-28T07:54:48.809Z,94795.16
2018-03-28T07:57:16.824Z,94789.05
2018-03-28T07:59:44.900Z,94792.80
2018-03-28T08:02:12.865Z,94786.16
2018-03-28T08:04:40.853Z,94789.47
2018-03-28T08:07:08.857Z,94792.47
2018-03-28T08:09:36.834Z,94787.97
2018-03-28T08:12:04.852Z,94782.20
2018-03-28T08:14:32.865Z,94782.55
2018-03-28T08:17:00.897Z,94778.02
2018-03-28T08:19:28.859Z,94777.59
2018-03-28T08:21:56.895Z,94774.94
2018-03-28T08:24:24.901Z,94775.56
2018-03-28T08:26:52.987Z,94775.59
2018-03-28T08:29:21.083Z,94779.11
2018-03-28T08:31:49.039Z,94781.79
2018-03-28T08:34:17.049Z,94782.36
2018-03-28T08:36:45.020Z,94783.61
2018-03-28T08:39:12.985Z,94782.98
2018-03-28T08:41:40.965Z,94775.27
2018-03-28T08:44:08.939Z,94776.99
2018-03-28T08:46:36.913Z,94777.61
2018-03-28T08:49:04.912Z,94774.81
2018-03-28T08:51:32.952Z,94770.66
2018-03-28T08:54:01.187Z,94763.66
2018-03-28T08:56:29.152Z,94770.05
2018-03-28T08:58:57.220Z,94762.37
2018-03-28T09:01:25.213Z,94760.98
2018-03-28T09:03:53.216Z,94755.95
2018-03-28T09:06:21.206Z,94670.32
2018-03-28T09:08:49.188Z,94751.42
2018-03-28T09:11:17.235Z,94741.30
2018-03-28T09:13:45.252Z,94740.20
2018-03-28T09:16:13.207Z,94741.48
2018-03-28T09:18:41.279Z,94741.62
2018-03-28T09:21:09.299Z,94746.53
2018-03-28T09:23:37.242Z,94740.41
2018-03-28T09:26:05.284Z,94730.38
2018-03-28T09:28:33.351Z,94727.72
2018-03-28T09:31:01.377Z,94727.12
2018-03-28T09:33:29.419Z,94731.12
2018-03-28T09:35:57.430Z,94721.60
2018-03-28T09:38:25.430Z,94708.26
2018-03-28T09:40:53.409Z,94716.48
2018-03-28T09:43:21.411Z,94706.77
2018-03-28T09:45:49.350Z,94704.71
2018-03-28T09:48:17.411Z,94706.64
2018-03-28T09:50:45.396Z,94690.61
2018-03-28T09:53:13.482Z,94696.39
2018-03-28T09:55:41.871Z,94691.44
2018-03-28T09:58:09.962Z,94690.80
2018-03-28T10:00:38.164Z,94693.15
2018-03-28T10:03:11.821Z,94687.21
2018-03-28T10:05:40.345Z,94689.41
2018-03-28T10:08:08.525Z,94692.69
2018-03-28T10:10:36.513Z,94681.93
2018-03-28T10:13:04.555Z,94683.23
2018-03-28T10:15:32.536Z,94679.63
2018-03-28T10:18:00.570Z,94676.34
2018-03-28T10:20:28.550Z,94671.89
2018-03-28T10:22:56.513Z,94677.38
2018-03-28T10:25:24.544Z,94670.34
2018-03-28T10:27:52.478Z,94675.60
2018-03-28T10:30:20.500Z,94668.80
2018-03-28T10:32:48.522Z,94663.13
2018-03-28T10:35:16.507Z,94665.73
2018-03-28T10:37:44.506Z,94667.25
2018-03-28T10:40:12.535Z,94669.84
2018-03-28T10:42:40.542Z,94663.63
2018-03-28T10:45:08.550Z,94655.84
2018-03-28T10:47:36.486Z,94653.09
2018-03-28T10:50:04.548Z,94658.21
2018-03-28T10:52:32.596Z,94651.67
2018-03-28T10:55:00.600Z,94659.17
2018-03-28T10:57:29.059Z,94659.41
2018-03-28T10:59:57.056Z,94650.11
2018-03-28T11:02:24.927Z,94649.83
2018-03-28T11:04:52.889Z,94647.02
2018-03-28T11:07:20.893Z,94653.17
2018-03-28T11:09:48.862Z,94650.89
2018-03-28T11:12:16.899Z,94652.42
2018-03-28T11:14:44.887Z,94645.86
2018-03-28T11:17:12.875Z,94644.72
2018-03-28T11:19:40.859Z,94644.69
2018-03-28T11:22:09.174Z,94637.31
2018-03-28T11:24:37.198Z,94632.41
2018-03-28T11:27:05.533Z,94630.56
2018-03-28T11:29:34.187Z,94622.78
2018-03-28T11:32:02.203Z,94624.86
2018-03-28T11:34:30.216Z,94615.89
2018-03-28T11:36:58.223Z,94610.67
2018-03-28T11:39:26.238Z,94603.14
2018-03-28T11:41:54.308Z,94605.80
2018-03-28T11:44:22.306Z,94602.57
2018-03-28T11:46:50.286Z,94593.54
2018-03-28T11:49:18.268Z,94592.86
2018-03-28T11:51:46.245Z,94600.56
2018-03-28T11:54:14.340Z,94587.30
2018-03-28T11:56:42.919Z,94586.59
2018-03-28T11:59:11.758Z,94582.19
2018-03-28T12:01:40.422Z,94592.22
2018-03-28T12:04:08.378Z,94591.59
2018-03-28T12:06:36.368Z,94586.75
2018-03-28T12:09:04.887Z,94582.18
2018-03-28T12:11:33.336Z,94582.81
2018-03-28T12:14:01.822Z,94572.16
2018-03-28T12:16:30.486Z,94578.38
2018-03-28T12:18:58.788Z,94574.58
2018-03-28T12:21:27.461Z,94575.95
2018-03-28T12:23:56.001Z,94575.12
2018-03-28T12:26:24.406Z,94571.14
2018-03-28T12:28:52.902Z,94575.41
2018-03-28T12:31:21.512Z,94578.02
2018-03-28T12:33:49.922Z,94573.95
2018-03-28T12:36:18.330Z,94579.34
2018-03-28T12:38:46.713Z,94573.76
2018-03-28T12:41:15.187Z,94578.78
2018-03-28T12:43:43.666Z,94580.66
2018-03-28T12:46:12.261Z,94581.69
2018-03-28T12:48:40.639Z,94578.97
2018-03-28T12:51:08.924Z,94587.77
2018-03-28T12:53:37.698Z,94484.02
2018-03-28T12:56:06.157Z,94585.88
2018-03-28T12:58:34.451Z,94583.33
2018-03-28T13:01:03.337Z,94587.12
2018-03-28T13:03:31.764Z,94579.42
2018-03-28T13:06:00.303Z,94578.52
2018-03-28T13:08:28.686Z,94584.39
2018-03-28T13:10:57.267Z,94584.74
2018-03-28T13:13:26.057Z,94587.06
2018-03-28T13:15:54.326Z,94587.83
2018-03-28T13:18:22.733Z,94583.95
2018-03-28T13:20:51.278Z,94586.17
2018-03-28T13:23:19.779Z,94597.13
2018-03-28T13:25:48.346Z,94580.38
2018-03-28T13:28:16.748Z,94584.66
2018-03-28T13:30:45.418Z,94577.46
2018-03-28T13:33:13.946Z,94579.33
2018-03-28T13:35:42.469Z,94574.22
2018-03-28T13:38:11.268Z,94570.25
2018-03-28T13:40:40.150Z,94556.65
2018-03-28T13:43:08.839Z,94568.38
2018-03-28T13:45:37.047Z,94563.88
2018-03-28T13:48:05.595Z,94565.52
2018-03-28T13:50:34.144Z,94554.88
2018-03-28T13:53:02.759Z,94556.66
2018-03-28T13:55:31.178Z,94563.22
2018-03-28T13:57:59.724Z,94557.53
2018-03-28T14:00:27.921Z,94559.27
2018-03-28T14:02:56.673Z,94559.43
2018-03-28T14:05:25.192Z,94550.71
2018-03-28T14:07:53.837Z,94551.07
2018-03-28T14:10:22.225Z,94545.70
2018-03-28T14:12:50.502Z,94545.49
2018-03-28T14:15:18.719Z,94549.92
2018-03-28T14:17:47.160Z,94544.23
2018-03-28T14:20:15.939Z,94549.41
2018-03-28T14:22:44.727Z,94543.05
2018-03-28T14:25:13.211Z,94548.69
2018-03-28T14:27:41.287Z,94542.50
2018-03-28T14:30:09.765Z,94542.04
2018-03-28T14:32:38.271Z,94550.13
2018-03-28T14:35:06.721Z,94536.53
2018-03-28T14:37:35.225Z,94550.72
2018-03-28T14:40:03.587Z,94555.57
2018-03-28T14:42:31.858Z,94555.72
2018-03-28T14:45:00.039Z,94557.37
2018-03-28T14:47:28.611Z,94563.80
2018-03-28T14:49:56.706Z,94549.94
2018-03-28T14:52:25.373Z,94562.30
2018-03-28T14:54:53.875Z,94568.92
2018-03-28T14:57:22.434Z,94570.72
2018-03-28T14:59:50.819Z,94574.10
2018-03-28T15:02:19.287Z,94568.36
2018-03-28T15:04:47.599Z,94564.66
2018-03-28T15:07:16.059Z,94567.72
2018-03-28T15:09:44.627Z,94568.02
2018-03-28T15:12:13.157Z,94568.63
2018-03-28T15:14:41.582Z,94564.91
2018-03-28T15:17:10.275Z,94568.88
2018-03-28T15:19:39.060Z,94573.36
2018-03-28T15:22:07.865Z,94574.54
2018-03-28T15:24:36.444Z,94572.39
2018-03-28T15:27:05.037Z,94580.83
2018-03-28T15:29:33.213Z,94575.31
2018-03-28T15:32:01.672Z,94575.42
2018-03-28T15:34:29.959Z,94572.92
2018-03-28T15:36:58.334Z,94578.49
2018-03-28T15:39:26.959Z,94579.03
2018-03-28T15:41:55.402Z,94588.32
2018-03-28T15:44:23.978Z,94586.00
2018-03-28T15:46:52.619Z,94585.23
2018-03-28T15:49:21.204Z,94580.98
2018-03-28T15:51:49.715Z,94577.80
2018-03-28T15:54:18.134Z,94582.38
2018-03-28T15:56:46.778Z,94589.27
2018-03-28T15:59:15.204Z,94589.81
2018-03-28T16:01:43.577Z,94592.25
2018-03-28T16:04:11.834Z,94598.63
2018-03-28T16:06:40.602Z,94598.47
2018-03-28T16:09:09.716Z,94602.98
2018-03-28T16:11:38.280Z,94600.30
2018-03-28T16:14:06.721Z,94601.70
2018-03-28T16:16:35.027Z,94611.14
2018-03-28T16:19:03.855Z,94601.91
2018-03-28T16:21:32.302Z,94616.97
2018-03-28T16:24:00.794Z,94618.15
2018-03-28T16:26:29.565Z,94616.84
2018-03-28T16:28:57.857Z,94624.22
2018-03-28T16:31:26.119Z,94629.30
2018-03-28T16:33:54.872Z,94629.46
2018-03-28T16:36:23.124Z,94632.73
2018-03-28T16:38:51.628Z,94635.63
2018-03-28T16:41:20.290Z,94639.44
2018-03-28T16:43:48.516Z,94636.64
2018-03-28T16:46:16.971Z,94635.16
2018-03-28T16:48:45.392Z,94641.53
2018-03-28T16:51:14.132Z,94649.21
2018-03-28T16:53:42.583Z,94653.31
2018-03-28T16:56:11.044Z,94654.73
2018-03-28T16:58:39.608Z,94663.69
2018-03-28T17:01:08.003Z,94642.08
2018-03-28T17:03:36.892Z,94658.28
2018-03-28T17:06:05.355Z,94661.34
2018-03-28T17:08:33.887Z,94667.72
2018-03-28T17:11:01.862Z,94667.83
2018-03-28T17:13:29.893Z,94673.34
2018-03-28T17:15:57.926Z,94685.38
2018-03-28T17:18:25.932Z,94685.19
2018-03-28T17:20:53.899Z,94693.86
2018-03-28T17:23:21.927Z,94697.20
2018-03-28T17:25:49.942Z,94696.77
2018-03-28T17:28:17.973Z,94701.90
2018-03-28T17:30:46.044Z,94707.83
2018-03-28T17:33:14.025Z,94712.18
2018-03-28T17:35:42.038Z,94714.44
2018-03-28T17:38:10.068Z,94706.20
2018-03-28T17:40:38.139Z,94713.78
2018-03-28T17:43:06.195Z,94720.05
2018-03-28T17:45:34.184Z,94725.86
2018-03-28T17:48:02.180Z,94729.63
2018-03-28T17:50:30.227Z,94734.77
2018-03-28T17:52:58.283Z,94734.56
2018-03-28T17:55:26.328Z,94744.23
2018-03-28T17:57:54.424Z,94753.28
2018-03-28T18:00:22.455Z,94755.23
2018-03-28T18:02:50.547Z,94758.51
2018-03-28T18:05:18.571Z,94763.20
2018-03-28T18:07:46.654Z,94764.96
2018-03-28T18:10:15.006Z,94768.27
2018-03-28T18:12:43.017Z,94774.20
2018-03-28T18:15:11.040Z,94769.78
2018-03-28T18:17:39.136Z,94774.53
2018-03-28T18:20:07.191Z,94778.56
2018-03-28T18:22:35.197Z,94782.91
2018-03-28T18:25:03.308Z,94781.92
2018-03-28T18:27:31.352Z,94782.31
2018-03-28T18:29:59.386Z,94783.70
2018-03-28T18:32:27.423Z,94791.10
2018-03-28T18:34:55.461Z,94787.89
2018-03-28T18:37:23.428Z,94789.61
2018-03-28T18:39:51.440Z,94793.52
2018-03-28T18:42:19.416Z,94788.42
2018-03-28T18:44:47.423Z,94793.73
2018-03-28T18:47:15.401Z,94794.91
2018-03-28T18:49:43.472Z,94786.05
2018-03-28T18:52:11.476Z,94804.59
2018-03-28T18:54:39.563Z,94806.27
2018-03-28T18:57:07.640Z,94801.53
2018-03-28T18:59:35.724Z,94806.15
2018-03-28T19:02:03.750Z,94809.35
2018-03-28T19:04:31.750Z,94815.95
2018-03-28T19:06:59.786Z,94813.69
2018-03-28T19:09:27.850Z,94814.50
2018-03-28T19:11:56.362Z,94814.25
2018-03-28T19:14:24.396Z,94812.92
2018-03-28T19:16:52.566Z,94815.03
2018-03-28T19:19:20.600Z,94816.34
2018-03-28T19:21:48.671Z,94815.84
2018-03-28T19:24:16.569Z,94813.30
2018-03-28T19:26:44.570Z,94821.34
2018-03-28T19:29:12.620Z,94816.64
2018-03-28T19:31:40.684Z,94823.23
2018-03-28T19:34:08.735Z,94821.98
2018-03-28T19:36:36.782Z,94818.09
2018-03-28T19:39:05.014Z,94818.17
2018-03-28T19:41:33.882Z,94812.20
2018-03-28T19:44:01.925Z,94798.42
2018-03-28T19:46:29.996Z,94805.27
2018-03-28T19:48:58.003Z,94807.87
2018-03-28T19:51:26.011Z,94801.10
2018-03-28T19:53:53.985Z,94794.86
2018-03-28T19:56:21.965Z,94801.83
2018-03-28T19:58:49.996Z,94775.30
2018-03-28T20:01:17.942Z,94797.80
2018-03-28T20:03:45.913Z,94802.95
2018-03-28T20:06:14.019Z,94796.89
2018-03-28T20:08:42.043Z,94801.75
2018-03-28T20:11:10.055Z,94804.55
2018-03-28T20:13:38.470Z,94803.06
2018-03-28T20:16:06.528Z,94797.58
2018-03-28T20:18:34.504Z,94794.50
2018-03-28T20:21:02.526Z,94794.31
2018-03-28T20:23:30.515Z,94789.66
2018-03-28T20:25:58.564Z,94792.07
2018-03-28T20:28:26.602Z,94790.27
2018-03-28T20:30:54.564Z,94795.50
2018-03-28T20:33:22.498Z,94801.81
2018-03-28T20:35:50.552Z,94803.11
2018-03-28T20:38:18.588Z,94801.39
2018-03-28T20:40:46.582Z,94804.55
2018-03-28T20:43:14.604Z,94797.76
2018-03-28T20:45:42.663Z,94800.59
2018-03-28T20:48:10.679Z,94797.20
2018-03-28T20:50:38.663Z,94797.14
2018-03-28T20:53:06.712Z,94801.00
2018-03-28T20:55:34.710Z,94793.22
2018-03-28T20:58:02.668Z,94790.79
2018-03-28T21:00:30.707Z,94781.64
2018-03-28T21:02:58.727Z,94781.13
2018-03-28T21:05:26.743Z,94782.38
2018-03-28T21:07:54.828Z,94788.86
2018-03-28T21:10:22.873Z,94778.92
2018-03-28T21:12:50.979Z,94781.06
2018-03-28T21:15:19.399Z,94782.48
2018-03-28T21:17:47.451Z,94769.38
2018-03-28T21:20:15.492Z,94774.95
2018-03-28T21:22:43.566Z,94772.84
2018-03-28T21:25:11.585Z,94778.80
2018-03-28T21:27:39.655Z,94766.50
2018-03-28T21:30:07.715Z,94780.36
2018-03-28T21:32:35.779Z,94778.00
2018-03-28T21:35:03.850Z,94777.08
2018-03-28T21:37:31.897Z,94773.24
2018-03-28T21:39:59.986Z,94769.80
2018-03-28T21:42:27.983Z,94778.13
2018-03-28T21:44:56.039Z,94773.51
2018-03-28T21:47:24.082Z,94776.00
2018-03-28T21:49:52.122Z,94764.13
2018-03-28T21:52:20.102Z,94762.69
2018-03-28T21:54:48.186Z,94759.59
2018-03-28T21:57:16.151Z,94758.02
2018-03-28T21:59:44.209Z,94759.45
2018-03-28T22:02:12.255Z,94760.21
2018-03-28T22:04:40.318Z,94757.61
2018-03-28T22:07:08.376Z,94763.45
2018-03-28T22:09:36.448Z,94769.50
2018-03-28T22:12:04.608Z,94777.08
2018-03-28T22:14:32.687Z,94767.44
2018-03-28T22:17:01.132Z,94768.62
2018-03-28T22:19:29.207Z,94772.98
2018-03-28T22:21:57.315Z,94774.66
2018-03-28T22:24:25.654Z,94780.20
2018-03-28T22:26:53.765Z,94783.27
2018-03-28T22:29:21.845Z,94782.48
2018-03-28T22:31:49.920Z,94782.59
2018-03-28T22:34:18.031Z,94786.01
2018-03-28T22:36:46.076Z,94786.13
2018-03-28T22:39:14.114Z,94789.51
2018-03-28T22:41:42.174Z,94787.32
2018-03-28T22:44:10.132Z,94792.19
2018-03-28T22:46:38.127Z,94792.48
2018-03-28T22:49:06.177Z,94797.64
2018-03-28T22:51:34.232Z,94802.76
2018-03-28T22:54:02.306Z,94803.31
2018-03-28T22:56:30.377Z,94806.88
2018-03-28T22:58:58.444Z,94827.08
2018-03-28T23:01:26.504Z,94828.39
2018-03-28T23:03:54.641Z,94830.36
2018-03-28T23:06:22.730Z,94826.67
2018-03-28T23:08:50.797Z,94822.44
2018-03-28T23:11:18.881Z,94822.31
2018-03-28T23:13:46.908Z,94820.48
2018-03-28T23:16:14.940Z,94821.09
2018-03-28T23:18:43.366Z,94820.60
2018-03-28T23:21:11.433Z,94814.53
2018-03-28T23:23:39.485Z,94820.31
2018-03-28T23:26:07.568Z,94818.48
2018-03-28T23:28:35.621Z,94818.48
2018-03-28T23:31:03.682Z,94815.94
2018-03-28T23:33:31.629Z,94813.48
2018-03-28T23:35:59.631Z,94810.17
2018-03-28T23:38:27.637Z,94795.02
2018-03-28T23:40:55.682Z,94802.92
2018-03-28T23:43:23.733Z,94802.93
2018-03-28T23:45:51.747Z,94799.09
2018-03-28T23:48:19.802Z,94813.73
2018-03-28T23:50:47.787Z,94807.81
2018-03-28T23:53:15.867Z,94805.17
2018-03-28T23:55:43.883Z,94809.13
2018-03-28T23:58:11.958Z,94802.53
